createdAt,value
2022-08-07T00:01:12.645Z,100.00
2022-08-07T00:03:50.667Z,100.00
2022-08-07T00:06:17.325Z,100.00
2022-08-07T00:08:47.946Z,100.00
2022-08-07T00:11:20.071Z,100.00
2022-08-07T00:13:56.925Z,100.00
2022-08-07T00:16:28.062Z,100.00
2022-08-07T00:18:54.822Z,100.00
2022-08-07T00:21:56.041Z,100.00
2022-08-07T00:24:08.997Z,100.00
2022-08-07T00:26:58.883Z,100.00
2022-08-07T00:29:25.975Z,100.00
2022-08-07T00:31:59.675Z,100.00
2022-08-07T00:34:27.082Z,100.00
2022-08-07T00:36:56.102Z,100.00
2022-08-07T00:39:22.774Z,100.00
2022-08-07T00:41:53.663Z,100.00
2022-08-07T00:44:27.894Z,100.00
2022-08-07T00:46:55.373Z,100.00
2022-08-07T00:49:24.941Z,100.00
2022-08-07T00:52:10.249Z,100.00
2022-08-07T00:54:40.704Z,100.00
2022-08-07T00:57:09.179Z,100.00
2022-08-07T00:59:37.446Z,100.00
2022-08-07T01:02:08.873Z,100.00
2022-08-07T01:04:43.456Z,100.00
2022-08-07T01:07:11.423Z,100.00
2022-08-07T01:10:06.513Z,100.00
2022-08-07T01:12:30.243Z,100.00
2022-08-07T01:15:01.523Z,100.00
2022-08-07T01:17:31.343Z,100.00
2022-08-07T01:20:04.752Z,100.00
2022-08-07T01:22:31.727Z,100.00
2022-08-07T01:24:59.275Z,100.00
2022-08-07T01:27:31.968Z,100.00
2022-08-07T01:29:59.746Z,100.00
2022-08-07T01:32:27.729Z,100.00
2022-08-07T01:34:56.156Z,100.00
2022-08-07T01:37:24.511Z,100.00
2022-08-07T01:39:52.261Z,100.00
2022-08-07T01:42:38.842Z,100.00
2022-08-07T01:45:15.700Z,100.00
2022-08-07T01:48:21.583Z,100.00
2022-08-07T01:50:32.405Z,100.00
2022-08-07T01:53:00.960Z,100.00
2022-08-07T01:55:33.807Z,100.00
2022-08-07T01:58:29.053Z,100.00
2022-08-07T02:01:10.002Z,100.00
2022-08-07T02:03:53.952Z,100.00
2022-08-07T02:06:31.216Z,100.00
2022-08-07T02:09:03.578Z,100.00
2022-08-07T02:12:04.089Z,100.00
2022-08-07T02:14:36.041Z,100.00
2022-08-07T02:17:09.447Z,100.00
2022-08-07T02:20:05.206Z,100.00
2022-08-07T02:22:29.112Z,100.00
2022-08-07T02:24:57.529Z,100.00
2022-08-07T02:27:26.461Z,100.00
2022-08-07T02:30:07.091Z,100.00
2022-08-07T02:32:38.722Z,100.00
2022-08-07T02:35:09.199Z,100.00
2022-08-07T02:37:44.050Z,100.00
2022-08-07T02:40:30.099Z,100.00
2022-08-07T02:42:58.835Z,100.00
2022-08-07T02:45:58.416Z,100.00
2022-08-07T02:48:15.689Z,100.00
2022-08-07T02:50:48.343Z,100.00
2022-08-07T02:53:38.396Z,100.00
2022-08-07T02:56:17.635Z,100.00
2022-08-07T02:58:51.290Z,100.00
2022-08-07T03:01:36.371Z,100.00
2022-08-07T03:04:07.130Z,100.00
2022-08-07T03:06:34.901Z,100.00
2022-08-07T03:09:03.682Z,100.00
2022-08-07T03:11:32.631Z,100.00
2022-08-07T03:14:02.408Z,100.00
2022-08-07T03:16:30.971Z,100.00
2022-08-07T03:18:59.179Z,100.00
2022-08-07T03:21:27.433Z,100.00
2022-08-07T03:24:20.659Z,100.00
2022-08-07T03:26:57.743Z,100.00
2022-08-07T03:29:50.762Z,100.00
2022-08-07T03:32:23.400Z,100.00
2022-08-07T03:35:16.842Z,100.00
2022-08-07T03:37:46.219Z,100.00
2022-08-07T03:40:20.569Z,100.00
2022-08-07T03:42:49.905Z,100.00
2022-08-07T03:45:30.404Z,100.00
2022-08-07T03:47:58.646Z,100.00
2022-08-07T03:50:28.759Z,100.00
2022-08-07T03:52:58.859Z,100.00
2022-08-07T03:55:57.679Z,100.00
2022-08-07T03:59:06.670Z,100.00
2022-08-07T04:01:00.466Z,100.00
2022-08-07T04:03:27.174Z,100.00
2022-08-07T04:05:58.783Z,100.00
2022-08-07T04:08:26.558Z,100.00
2022-08-07T04:12:15.707Z,100.00
2022-08-07T04:14:33.286Z,100.00
2022-08-07T04:16:31.017Z,100.00
2022-08-07T04:19:03.722Z,100.00
2022-08-07T04:21:38.813Z,100.00
2022-08-07T04:24:10.361Z,100.00
2022-08-07T04:26:58.011Z,100.00
2022-08-07T04:29:24.439Z,100.00
2022-08-07T04:32:03.052Z,100.00
2022-08-07T04:34:37.734Z,100.00
2022-08-07T04:37:08.094Z,100.00
2022-08-07T04:39:48.010Z,100.00
2022-08-07T04:42:16.315Z,100.00
2022-08-07T04:44:54.534Z,100.00
2022-08-07T04:48:00.461Z,100.00
2022-08-07T04:51:04.224Z,100.00
2022-08-07T04:54:01.716Z,100.00
2022-08-07T04:58:14.422Z,100.00
2022-08-07T05:00:10.947Z,100.00
2022-08-07T05:02:34.736Z,100.00
2022-08-07T05:05:54.036Z,100.00
2022-08-07T05:08:15.367Z,100.00
2022-08-07T05:10:58.371Z,100.00
2022-08-07T05:14:55.623Z,100.00
2022-08-07T05:16:30.130Z,100.00
2022-08-07T05:19:04.837Z,100.00
2022-08-07T05:22:00.548Z,100.00
2022-08-07T05:24:20.930Z,100.00
2022-08-07T05:26:55.352Z,100.00
2022-08-07T05:29:26.090Z,100.00
2022-08-07T05:32:08.253Z,100.00
2022-08-07T05:34:36.476Z,100.00
2022-08-07T05:37:05.843Z,100.00
2022-08-07T05:40:07.075Z,100.00
2022-08-07T05:42:33.308Z,100.00
2022-08-07T05:45:14.716Z,100.00
2022-08-07T05:48:01.761Z,100.00
2022-08-07T05:50:32.016Z,100.00
2022-08-07T05:52:59.294Z,100.00
2022-08-07T05:56:02.225Z,100.00
2022-08-07T05:58:14.587Z,100.00
2022-08-07T06:00:46.500Z,100.00
2022-08-07T06:03:20.034Z,100.00
2022-08-07T06:05:49.653Z,100.00
2022-08-07T06:08:31.453Z,100.00
2022-08-07T06:10:59.429Z,100.00
2022-08-07T06:14:10.707Z,100.00
2022-08-07T06:16:20.173Z,100.00
2022-08-07T06:18:55.518Z,100.00
2022-08-07T06:22:15.027Z,100.00
2022-08-07T06:24:45.741Z,100.00
2022-08-07T06:26:55.946Z,100.00
2022-08-07T06:29:29.612Z,100.00
2022-08-07T06:31:56.050Z,100.00
2022-08-07T06:34:29.814Z,100.00
2022-08-07T06:36:57.065Z,100.00
2022-08-07T06:40:16.390Z,100.00
2022-08-07T06:42:17.632Z,100.00
2022-08-07T06:44:50.937Z,100.00
2022-08-07T06:47:18.813Z,100.00
2022-08-07T06:49:51.470Z,100.00
2022-08-07T06:52:32.079Z,100.00
2022-08-07T06:55:31.950Z,100.00
2022-08-07T06:58:04.730Z,100.00
2022-08-07T07:00:36.688Z,100.00
2022-08-07T07:03:08.620Z,100.00
2022-08-07T07:06:03.580Z,100.00
2022-08-07T07:08:27.249Z,100.00
2022-08-07T07:10:56.475Z,100.00
2022-08-07T07:13:56.292Z,100.00
2022-08-07T07:16:27.494Z,100.00
2022-08-07T07:19:11.473Z,100.00
2022-08-07T07:22:05.262Z,100.00
2022-08-07T07:24:36.675Z,100.00
2022-08-07T07:27:05.851Z,100.00
2022-08-07T07:29:56.146Z,100.00
2022-08-07T07:32:25.654Z,100.00
2022-08-07T07:34:55.871Z,100.00
2022-08-07T07:37:49.635Z,100.00
2022-08-07T07:40:16.638Z,100.00
2022-08-07T07:42:47.058Z,96.12
2022-08-07T07:45:24.489Z,90.92
2022-08-07T07:48:11.226Z,91.50
2022-08-07T07:50:40.158Z,94.14
2022-08-07T07:53:20.476Z,94.35
2022-08-07T07:56:00.800Z,92.40
2022-08-07T07:58:40.569Z,93.10
2022-08-07T08:02:02.513Z,91.68
2022-08-07T08:04:09.506Z,89.63
2022-08-07T08:06:39.525Z,87.97
2022-08-07T08:09:08.498Z,83.11
2022-08-07T08:11:59.731Z,79.14
2022-08-07T08:14:26.282Z,79.40
2022-08-07T08:16:56.615Z,73.37
2022-08-07T08:20:17.398Z,76.82
2022-08-07T08:22:56.118Z,75.49
2022-08-07T08:25:49.232Z,77.87
2022-08-07T08:28:23.755Z,78.37
2022-08-07T08:30:58.967Z,77.96
2022-08-07T08:33:33.222Z,76.49
2022-08-07T08:36:01.665Z,76.49
2022-08-07T08:38:41.019Z,71.71
2022-08-07T08:41:56.799Z,72.36
2022-08-07T08:44:16.157Z,69.92
2022-08-07T08:47:05.974Z,75.67
2022-08-07T08:50:04.500Z,72.08
2022-08-07T08:52:40.754Z,71.48
2022-08-07T08:55:53.275Z,73.04
2022-08-07T08:58:54.834Z,73.26
2022-08-07T09:02:00.380Z,77.09
2022-08-07T09:04:44.542Z,75.63
2022-08-07T09:07:25.345Z,74.95
2022-08-07T09:10:04.675Z,72.16
2022-08-07T09:12:39.767Z,68.56
2022-08-07T09:16:24.060Z,64.23
2022-08-07T09:18:38.574Z,64.04
2022-08-07T09:21:57.905Z,66.50
2022-08-07T09:24:58.585Z,66.17
2022-08-07T09:27:59.425Z,66.18
2022-08-07T09:30:29.404Z,65.78
2022-08-07T09:33:16.458Z,63.52
2022-08-07T09:36:09.684Z,65.73
2022-08-07T09:38:39.181Z,66.04
2022-08-07T09:41:16.766Z,66.25
2022-08-07T09:44:06.827Z,66.60
2022-08-07T09:47:50.208Z,63.99
2022-08-07T09:50:19.983Z,63.87
2022-08-07T09:52:51.903Z,62.53
2022-08-07T09:56:04.630Z,60.82
2022-08-07T09:58:38.758Z,61.54
2022-08-07T10:01:52.052Z,62.86
2022-08-07T10:04:39.430Z,60.65
2022-08-07T10:07:31.383Z,58.23
2022-08-07T10:10:12.048Z,57.21
2022-08-07T10:13:04.060Z,56.40
2022-08-07T10:16:01.718Z,54.52
2022-08-07T10:18:50.300Z,55.90
2022-08-07T10:22:14.524Z,56.90
2022-08-07T10:24:33.392Z,55.60
2022-08-07T10:27:15.911Z,55.00
2022-08-07T10:30:01.960Z,55.10
2022-08-07T10:32:53.405Z,53.15
2022-08-07T10:35:55.405Z,57.88
2022-08-07T10:38:42.094Z,56.04
2022-08-07T10:41:51.944Z,52.97
2022-08-07T10:44:37.431Z,51.76
2022-08-07T10:47:27.183Z,52.34
2022-08-07T10:50:25.884Z,53.80
2022-08-07T10:53:24.982Z,52.05
2022-08-07T10:56:20.676Z,53.60
2022-08-07T10:59:09.664Z,50.83
2022-08-07T11:02:04.985Z,53.19
2022-08-07T11:04:55.874Z,54.52
2022-08-07T11:07:58.651Z,54.66
2022-08-07T11:10:27.358Z,56.04
2022-08-07T11:13:03.955Z,55.74
2022-08-07T11:15:38.341Z,56.58
2022-08-07T11:18:40.445Z,55.99
2022-08-07T11:21:35.239Z,58.36
2022-08-07T11:24:36.690Z,57.50
2022-08-07T11:27:33.392Z,56.07
2022-08-07T11:30:17.890Z,53.50
2022-08-07T11:32:58.522Z,54.20
2022-08-07T11:35:30.071Z,52.50
2022-08-07T11:38:12.690Z,53.07
2022-08-07T11:40:57.473Z,53.12
2022-08-07T11:43:29.569Z,54.45
2022-08-07T11:46:38.799Z,52.96
2022-08-07T11:49:50.581Z,54.90
2022-08-07T11:52:44.910Z,56.19
2022-08-07T11:56:09.136Z,57.27
2022-08-07T11:58:55.355Z,57.48
2022-08-07T12:01:58.780Z,54.62
2022-08-07T12:04:38.501Z,54.75
2022-08-07T12:07:27.122Z,55.79
2022-08-07T12:10:02.108Z,57.54
2022-08-07T12:12:43.831Z,55.73
2022-08-07T12:15:46.106Z,55.80
2022-08-07T12:18:08.151Z,57.59
2022-08-07T12:21:15.929Z,58.31
2022-08-07T12:24:05.411Z,56.13
2022-08-07T12:26:53.717Z,56.60
2022-08-07T12:29:38.155Z,56.07
2022-08-07T12:32:50.613Z,57.88
2022-08-07T12:35:19.339Z,56.29
2022-08-07T12:38:09.026Z,57.39
2022-08-07T12:40:48.898Z,56.92
2022-08-07T12:44:04.259Z,57.30
2022-08-07T12:46:34.151Z,54.01
2022-08-07T12:49:48.511Z,57.26
2022-08-07T12:52:34.216Z,55.05
2022-08-07T12:55:17.754Z,55.52
2022-08-07T12:58:00.208Z,55.07
2022-08-07T13:01:00.337Z,56.92
2022-08-07T13:04:02.240Z,55.41
2022-08-07T13:07:03.113Z,57.21
2022-08-07T13:10:39.239Z,59.94
2022-08-07T13:13:48.473Z,57.80
2022-08-07T13:16:41.844Z,57.54
2022-08-07T13:19:50.360Z,58.98
2022-08-07T13:22:31.640Z,59.67
2022-08-07T13:25:15.211Z,59.39
2022-08-07T13:28:13.701Z,60.80
2022-08-07T13:30:52.133Z,61.06
2022-08-07T13:34:32.788Z,59.48
2022-08-07T13:36:30.506Z,60.90
2022-08-07T13:40:32.929Z,59.64
2022-08-07T13:42:21.518Z,60.11
2022-08-07T13:44:55.276Z,61.66
2022-08-07T13:48:05.918Z,59.19
2022-08-07T13:50:32.843Z,58.80
2022-08-07T13:53:05.184Z,58.33
2022-08-07T13:55:33.991Z,57.10
2022-08-07T13:58:31.810Z,58.21
2022-08-07T14:01:10.649Z,58.36
2022-08-07T14:04:07.586Z,58.40
2022-08-07T14:06:38.473Z,59.92
2022-08-07T14:09:07.155Z,60.29
2022-08-07T14:11:53.504Z,59.66
2022-08-07T14:14:38.634Z,61.00
2022-08-07T14:17:32.010Z,61.60
2022-08-07T14:20:44.378Z,61.77
2022-08-07T14:23:00.673Z,61.97
2022-08-07T14:25:39.635Z,63.49
2022-08-07T14:28:14.681Z,64.31
2022-08-07T14:30:47.123Z,63.01
2022-08-07T14:33:22.459Z,64.35
2022-08-07T14:35:55.694Z,65.08
2022-08-07T14:38:30.707Z,65.12
2022-08-07T14:41:04.966Z,66.59
2022-08-07T14:43:57.075Z,65.06
2022-08-07T14:46:30.629Z,65.01
2022-08-07T14:49:00.211Z,63.97
2022-08-07T14:52:04.315Z,66.38
2022-08-07T14:54:35.924Z,66.94
2022-08-07T14:57:19.160Z,67.40
2022-08-07T15:00:04.953Z,63.93
2022-08-07T15:02:34.936Z,65.67
2022-08-07T15:05:03.326Z,64.40
2022-08-07T15:07:50.861Z,64.54
2022-08-07T15:10:26.468Z,64.49
2022-08-07T15:13:12.283Z,65.17
2022-08-07T15:15:53.391Z,68.16
2022-08-07T15:18:33.602Z,66.18
2022-08-07T15:25:14.363Z,68.56
2022-08-07T15:26:51.397Z,70.50
2022-08-07T15:30:08.693Z,71.11
2022-08-07T15:32:11.784Z,68.51
2022-08-07T15:34:50.137Z,70.05
2022-08-07T15:37:27.884Z,71.93
2022-08-07T15:40:02.735Z,72.72
2022-08-07T15:42:51.858Z,72.40
2022-08-07T15:45:55.694Z,71.50
2022-08-07T15:49:11.935Z,73.61
2022-08-07T15:54:16.199Z,73.29
2022-08-07T15:56:44.933Z,75.70
2022-08-07T15:59:17.233Z,76.98
2022-08-07T16:02:01.826Z,76.22
2022-08-07T16:04:32.454Z,77.37
2022-08-07T16:07:01.089Z,77.00
2022-08-07T16:09:51.748Z,74.65
2022-08-07T16:12:34.404Z,77.69
2022-08-07T16:15:54.474Z,78.48
2022-08-07T16:19:04.220Z,76.54
2022-08-07T16:22:17.570Z,77.68
2022-08-07T16:24:59.498Z,81.11
2022-08-07T16:27:40.822Z,83.06
2022-08-07T16:30:30.947Z,81.38
2022-08-07T16:34:02.367Z,82.69
2022-08-07T16:36:23.022Z,84.64
2022-08-07T16:39:33.589Z,82.88
2022-08-07T16:42:12.464Z,85.27
2022-08-07T16:45:24.722Z,88.82
2022-08-07T16:48:53.557Z,91.34
2022-08-07T16:52:01.472Z,88.59
2022-08-07T16:54:32.944Z,89.77
2022-08-07T16:58:01.788Z,89.25
2022-08-07T17:00:39.944Z,91.70
2022-08-07T17:03:19.179Z,91.05
2022-08-07T17:06:29.848Z,89.07
2022-08-07T17:10:07.153Z,90.61
2022-08-07T17:12:36.742Z,89.02
2022-08-07T17:15:15.790Z,92.52
2022-08-07T17:17:48.449Z,93.69
2022-08-07T17:20:41.274Z,93.33
2022-08-07T17:23:49.188Z,93.59
2022-08-07T17:26:35.849Z,92.85
2022-08-07T17:30:15.732Z,90.78
2022-08-07T17:32:31.400Z,91.48
2022-08-07T17:35:50.984Z,90.99
2022-08-07T17:38:50.246Z,89.73
2022-08-07T17:42:02.165Z,91.18
2022-08-07T17:44:34.178Z,94.76
2022-08-07T17:47:38.673Z,98.48
2022-08-07T17:50:16.380Z,98.88
2022-08-07T17:52:59.847Z,97.63
2022-08-07T17:55:55.782Z,99.06
2022-08-07T17:58:46.203Z,100.00
2022-08-07T18:01:21.857Z,100.00
2022-08-07T18:04:16.793Z,100.00
2022-08-07T18:07:19.095Z,100.00
2022-08-07T18:10:06.557Z,100.00
2022-08-07T18:12:59.096Z,100.00
2022-08-07T18:15:32.792Z,100.00
2022-08-07T18:18:46.956Z,100.00
2022-08-07T18:21:29.564Z,100.00
2022-08-07T18:24:35.474Z,100.00
2022-08-07T18:27:12.397Z,100.00
2022-08-07T18:30:31.596Z,100.00
2022-08-07T18:33:31.494Z,100.00
2022-08-07T18:36:16.543Z,100.00
2022-08-07T18:38:58.005Z,100.00
2022-08-07T18:41:54.114Z,100.00
2022-08-07T18:44:24.038Z,100.00
2022-08-07T18:47:03.137Z,100.00
2022-08-07T18:50:30.925Z,100.00
2022-08-07T18:53:04.809Z,100.00
2022-08-07T18:56:01.759Z,100.00
2022-08-07T18:58:54.180Z,100.00
2022-08-07T19:02:18.956Z,100.00
2022-08-07T19:04:39.753Z,100.00
2022-08-07T19:07:51.697Z,100.00
2022-08-07T19:10:31.389Z,100.00
2022-08-07T19:13:11.739Z,100.00
2022-08-07T19:17:05.580Z,100.00
2022-08-07T19:19:04.892Z,100.00
2022-08-07T19:22:04.209Z,100.00
2022-08-07T19:24:50.062Z,100.00
2022-08-07T19:28:29.621Z,100.00
2022-08-07T19:31:04.038Z,100.00
2022-08-07T19:33:08.312Z,100.00
2022-08-07T19:35:37.684Z,100.00
2022-08-07T19:38:16.726Z,100.00
2022-08-07T19:40:50.516Z,100.00
2022-08-07T19:43:49.183Z,100.00
2022-08-07T19:46:15.927Z,100.00
2022-08-07T19:48:53.717Z,100.00
2022-08-07T19:51:51.055Z,100.00
2022-08-07T19:54:37.291Z,100.00
2022-08-07T19:58:01.223Z,100.00
2022-08-07T19:59:58.129Z,100.00
2022-08-07T20:02:39.781Z,100.00
2022-08-07T20:05:29.933Z,100.00
2022-08-07T20:07:59.500Z,100.00
2022-08-07T20:10:51.042Z,100.00
2022-08-07T20:13:27.023Z,100.00
2022-08-07T20:16:01.934Z,100.00
2022-08-07T20:18:32.205Z,100.00
2022-08-07T20:21:02.477Z,100.00
2022-08-07T20:23:40.728Z,100.00
2022-08-07T20:26:10.958Z,100.00
2022-08-07T20:28:42.026Z,100.00
2022-08-07T20:31:21.323Z,100.00
2022-08-07T20:33:57.500Z,100.00
2022-08-07T20:36:28.343Z,100.00
2022-08-07T20:38:59.909Z,100.00
2022-08-07T20:41:34.152Z,100.00
2022-08-07T20:44:12.465Z,100.00
2022-08-07T20:46:44.190Z,100.00
2022-08-07T20:49:58.082Z,100.00
2022-08-07T20:52:00.503Z,100.00
2022-08-07T20:54:32.175Z,100.00
2022-08-07T20:57:04.527Z,100.00
2022-08-07T21:00:08.103Z,100.00
2022-08-07T21:02:54.520Z,100.00
2022-08-07T21:05:25.754Z,100.00
2022-08-07T21:08:15.587Z,100.00
2022-08-07T21:10:44.140Z,100.00
2022-08-07T21:13:14.687Z,100.00
2022-08-07T21:15:48.072Z,100.00
2022-08-07T21:18:35.895Z,100.00
2022-08-07T21:21:08.358Z,100.00
2022-08-07T21:23:49.560Z,100.00
2022-08-07T21:26:26.371Z,100.00
2022-08-07T21:29:07.317Z,100.00
2022-08-07T21:32:46.945Z,100.00
2022-08-07T21:35:02.636Z,100.00
2022-08-07T21:37:57.911Z,100.00
2022-08-07T21:40:43.745Z,100.00
2022-08-07T21:43:23.087Z,100.00
2022-08-07T21:46:08.873Z,100.00
2022-08-07T21:48:56.636Z,100.00
2022-08-07T21:52:05.757Z,100.00
2022-08-07T21:54:50.724Z,100.00
2022-08-07T21:57:51.735Z,100.00
2022-08-07T22:00:25.283Z,100.00
2022-08-07T22:03:31.140Z,100.00
2022-08-07T22:06:28.886Z,100.00
2022-08-07T22:09:06.988Z,100.00
2022-08-07T22:12:05.006Z,100.00
2022-08-07T22:14:36.128Z,100.00
2022-08-07T22:17:05.010Z,100.00
2022-08-07T22:19:53.662Z,100.00
2022-08-07T22:22:30.030Z,100.00
2022-08-07T22:25:26.617Z,100.00
2022-08-07T22:28:31.146Z,100.00
2022-08-07T22:31:06.820Z,100.00
2022-08-07T22:33:56.711Z,100.00
2022-08-07T22:37:05.778Z,100.00
2022-08-07T22:39:54.814Z,100.00
2022-08-07T22:42:26.059Z,100.00
2022-08-07T22:45:02.403Z,100.00
2022-08-07T22:47:52.163Z,100.00
2022-08-07T22:50:39.665Z,100.00
2022-08-07T22:54:08.088Z,100.00
2022-08-07T22:57:00.877Z,100.00
2022-08-07T22:59:49.709Z,100.00
2022-08-07T23:02:37.377Z,100.00
2022-08-07T23:06:07.244Z,100.00
2022-08-07T23:08:22.254Z,100.00
2022-08-07T23:11:13.763Z,100.00
2022-08-07T23:13:48.590Z,100.00
2022-08-07T23:16:55.449Z,100.00
2022-08-07T23:19:59.815Z,100.00
2022-08-07T23:22:43.649Z,100.00
2022-08-07T23:25:12.134Z,100.00
2022-08-07T23:28:22.618Z,100.00
2022-08-07T23:31:06.761Z,100.00
2022-08-07T23:34:23.805Z,100.00
2022-08-07T23:37:20.057Z,100.00
2022-08-07T23:40:00.379Z,100.00
2022-08-07T23:43:00.593Z,100.00
2022-08-07T23:46:02.605Z,100.00
2022-08-07T23:48:33.748Z,100.00
2022-08-07T23:51:12.350Z,100.00
2022-08-07T23:54:19.459Z,100.00
2022-08-07T23:56:56.547Z,100.00
